sensor_id;sensor_type;location;lat;lon;timestamp;pressure;altitude;pressure_sealevel;temperature;humidity
27425;BME280;15244;49.088;11.886;2023-02-20T00:04:55;96654.06;;;9.64;57.94
27425;BME280;15244;49.088;11.886;2023-02-20T00:09:57;96656.44;;;9.66;58.36
27425;BME280;15244;49.088;11.886;2023-02-20T00:14:59;96658.09;;;9.70;57.97
27425;BME280;15244;49.088;11.886;2023-02-20T00:20:01;96650.56;;;9.64;58.48
27425;BME280;15244;49.088;11.886;2023-02-20T00:25:02;96647.50;;;9.65;58.42
27425;BME280;15244;49.088;11.886;2023-02-20T00:30:04;96646.44;;;9.70;58.36
27425;BME280;15244;49.088;11.886;2023-02-20T00:35:09;96651.50;;;9.71;58.31
27425;BME280;15244;49.088;11.886;2023-02-20T00:40:12;96645.78;;;9.76;58.25
27425;BME280;15244;49.088;11.886;2023-02-20T00:45:15;96652.09;;;9.81;58.25
27425;BME280;15244;49.088;11.886;2023-02-20T00:50:17;96654.56;;;9.86;58.06
27425;BME280;15244;49.088;11.886;2023-02-20T00:55:19;96658.13;;;9.90;57.88
27425;BME280;15244;49.088;11.886;2023-02-20T01:00:24;96651.91;;;9.89;58.17
27425;BME280;15244;49.088;11.886;2023-02-20T01:05:26;96645.59;;;9.85;58.09
27425;BME280;15244;49.088;11.886;2023-02-20T01:10:28;96648.31;;;9.85;58.02
27425;BME280;15244;49.088;11.886;2023-02-20T01:15:29;96635.50;;;9.86;57.98
27425;BME280;15244;49.088;11.886;2023-02-20T01:20:31;96629.81;;;9.75;58.14
27425;BME280;15244;49.088;11.886;2023-02-20T01:25:33;96631.66;;;9.71;58.45
27425;BME280;15244;49.088;11.886;2023-02-20T01:30:35;96629.66;;;9.68;58.43
27425;BME280;15244;49.088;11.886;2023-02-20T01:35:36;96644.41;;;9.67;58.33
27425;BME280;15244;49.088;11.886;2023-02-20T01:40:38;96638.88;;;9.63;58.46
27425;BME280;15244;49.088;11.886;2023-02-20T01:45:40;96643.53;;;9.63;58.34
27425;BME280;15244;49.088;11.886;2023-02-20T01:50:43;96656.38;;;9.62;58.43
27425;BME280;15244;49.088;11.886;2023-02-20T01:55:55;96638.81;;;9.60;58.19
27425;BME280;15244;49.088;11.886;2023-02-20T02:00:59;96624.38;;;9.59;58.44
27425;BME280;15244;49.088;11.886;2023-02-20T02:06:04;96619.75;;;9.60;58.31
27425;BME280;15244;49.088;11.886;2023-02-20T02:11:15;96612.44;;;9.64;58.29
27425;BME280;15244;49.088;11.886;2023-02-20T02:16:36;96617.97;;;9.67;58.32
27425;BME280;15244;49.088;11.886;2023-02-20T02:32:31;96625.44;;;9.70;58.22
27425;BME280;15244;49.088;11.886;2023-02-20T02:43:14;96614.09;;;9.68;57.93
27425;BME280;15244;49.088;11.886;2023-02-20T02:48:27;96612.09;;;9.65;58.09
27425;BME280;15244;49.088;11.886;2023-02-20T02:53:31;96599.97;;;9.63;58.25
27425;BME280;15244;49.088;11.886;2023-02-20T02:58:36;96590.09;;;9.54;58.36
27425;BME280;15244;49.088;11.886;2023-02-20T03:03:39;96597.00;;;9.52;58.34
27425;BME280;15244;49.088;11.886;2023-02-20T03:08:50;96592.22;;;9.45;58.20
27425;BME280;15244;49.088;11.886;2023-02-20T03:14:05;96588.78;;;9.48;58.21
27425;BME280;15244;49.088;11.886;2023-02-20T03:19:35;96592.22;;;9.45;58.15
27425;BME280;15244;49.088;11.886;2023-02-20T03:24:39;96590.88;;;9.39;57.97
27425;BME280;15244;49.088;11.886;2023-02-20T03:30:11;96597.16;;;9.40;57.96
27425;BME280;15244;49.088;11.886;2023-02-20T03:35:14;96604.94;;;9.41;58.02
27425;BME280;15244;49.088;11.886;2023-02-20T03:40:38;96599.88;;;9.40;57.79
27425;BME280;15244;49.088;11.886;2023-02-20T03:46:08;96601.44;;;9.41;57.75
27425;BME280;15244;49.088;11.886;2023-02-20T03:51:12;96605.03;;;9.45;57.58
27425;BME280;15244;49.088;11.886;2023-02-20T03:56:43;96605.81;;;9.45;57.63
27425;BME280;15244;49.088;11.886;2023-02-20T04:01:56;96599.41;;;9.38;57.70
27425;BME280;15244;49.088;11.886;2023-02-20T04:07:03;96596.25;;;9.36;57.96
27425;BME280;15244;49.088;11.886;2023-02-20T04:12:19;96599.75;;;9.36;57.65
27425;BME280;15244;49.088;11.886;2023-02-20T04:17:31;96609.44;;;9.33;57.63
27425;BME280;15244;49.088;11.886;2023-02-20T04:22:39;96606.38;;;9.35;57.56
27425;BME280;15244;49.088;11.886;2023-02-20T04:27:43;96594.69;;;9.35;57.83
27425;BME280;15244;49.088;11.886;2023-02-20T04:32:45;96599.31;;;9.34;57.43
27425;BME280;15244;49.088;11.886;2023-02-20T04:37:47;96620.41;;;9.37;57.73
27425;BME280;15244;49.088;11.886;2023-02-20T04:42:49;96628.13;;;9.35;57.53
27425;BME280;15244;49.088;11.886;2023-02-20T04:47:50;96616.81;;;9.33;57.39
27425;BME280;15244;49.088;11.886;2023-02-20T04:52:52;96619.00;;;9.27;57.49
27425;BME280;15244;49.088;11.886;2023-02-20T04:57:55;96617.28;;;9.19;57.71
27425;BME280;15244;49.088;11.886;2023-02-20T05:03:04;96611.28;;;9.14;57.77
27425;BME280;15244;49.088;11.886;2023-02-20T05:08:06;96613.94;;;9.10;57.65
27425;BME280;15244;49.088;11.886;2023-02-20T05:13:08;96615.78;;;9.06;57.90
27425;BME280;15244;49.088;11.886;2023-02-20T05:18:10;96621.56;;;9.04;58.04
27425;BME280;15244;49.088;11.886;2023-02-20T05:23:12;96619.13;;;8.99;57.78
27425;BME280;15244;49.088;11.886;2023-02-20T05:28:13;96628.41;;;8.98;57.90
27425;BME280;15244;49.088;11.886;2023-02-20T05:33:15;96643.94;;;8.98;58.13
27425;BME280;15244;49.088;11.886;2023-02-20T05:38:17;96638.75;;;8.93;57.87
27425;BME280;15244;49.088;11.886;2023-02-20T05:43:19;96633.50;;;8.84;57.89
27425;BME280;15244;49.088;11.886;2023-02-20T05:48:21;96634.19;;;8.81;57.56
27425;BME280;15244;49.088;11.886;2023-02-20T05:53:22;96646.66;;;8.82;57.63
27425;BME280;15244;49.088;11.886;2023-02-20T05:58:24;96641.81;;;8.75;57.80
27425;BME280;15244;49.088;11.886;2023-02-20T06:03:26;96636.19;;;8.68;57.88
27425;BME280;15244;49.088;11.886;2023-02-20T06:08:28;96637.25;;;8.79;57.70
27425;BME280;15244;49.088;11.886;2023-02-20T06:13:29;96650.34;;;8.74;57.52
27425;BME280;15244;49.088;11.886;2023-02-20T06:18:37;96651.47;;;8.73;57.48
27425;BME280;15244;49.088;11.886;2023-02-20T06:23:42;96657.78;;;8.77;57.42
27425;BME280;15244;49.088;11.886;2023-02-20T06:28:46;96667.50;;;8.78;57.27
27425;BME280;15244;49.088;11.886;2023-02-20T06:33:51;96676.13;;;8.80;57.40
27425;BME280;15244;49.088;11.886;2023-02-20T06:38:53;96674.56;;;8.79;57.04
27425;BME280;15244;49.088;11.886;2023-02-20T06:43:58;96683.38;;;8.76;57.39
27425;BME280;15244;49.088;11.886;2023-02-20T06:49:00;96679.63;;;8.80;57.16
27425;BME280;15244;49.088;11.886;2023-02-20T06:54:02;96688.72;;;8.72;57.10
27425;BME280;15244;49.088;11.886;2023-02-20T06:59:05;96685.81;;;8.65;57.18
27425;BME280;15244;49.088;11.886;2023-02-20T07:04:21;96682.75;;;8.66;57.09
27425;BME280;15244;49.088;11.886;2023-02-20T07:09:24;96665.66;;;8.66;57.41
27425;BME280;15244;49.088;11.886;2023-02-20T07:14:26;96669.16;;;8.66;57.09
27425;BME280;15244;49.088;11.886;2023-02-20T07:19:28;96665.41;;;8.71;57.19
27425;BME280;15244;49.088;11.886;2023-02-20T07:24:29;96669.25;;;8.70;57.32
27425;BME280;15244;49.088;11.886;2023-02-20T07:29:31;96661.53;;;8.72;57.03
27425;BME280;15244;49.088;11.886;2023-02-20T07:34:32;96639.78;;;8.72;57.29
27425;BME280;15244;49.088;11.886;2023-02-20T07:39:34;96656.75;;;8.81;57.46
27425;BME280;15244;49.088;11.886;2023-02-20T07:44:35;96652.69;;;8.91;56.93
27425;BME280;15244;49.088;11.886;2023-02-20T07:49:37;96676.50;;;8.94;57.18
27425;BME280;15244;49.088;11.886;2023-02-20T07:54:39;96667.53;;;8.94;56.90
27425;BME280;15244;49.088;11.886;2023-02-20T07:59:41;96667.97;;;8.96;56.98
27425;BME280;15244;49.088;11.886;2023-02-20T08:04:43;96656.75;;;8.97;56.74
27425;BME280;15244;49.088;11.886;2023-02-20T08:09:47;96645.44;;;8.95;56.86
27425;BME280;15244;49.088;11.886;2023-02-20T08:14:49;96664.91;;;8.97;56.69
27425;BME280;15244;49.088;11.886;2023-02-20T08:19:51;96646.47;;;8.90;56.77
27425;BME280;15244;49.088;11.886;2023-02-20T08:24:53;96668.88;;;9.00;56.83
27425;BME280;15244;49.088;11.886;2023-02-20T08:29:55;96680.09;;;8.98;56.65
27425;BME280;15244;49.088;11.886;2023-02-20T08:34:57;96655.00;;;9.05;56.54
27425;BME280;15244;49.088;11.886;2023-02-20T08:39:58;96646.06;;;9.04;56.52
27425;BME280;15244;49.088;11.886;2023-02-20T08:45:03;96632.53;;;9.08;56.37
27425;BME280;15244;49.088;11.886;2023-02-20T08:50:06;96626.38;;;9.11;56.52
27425;BME280;15244;49.088;11.886;2023-02-20T08:55:07;96657.97;;;9.16;56.34
27425;BME280;15244;49.088;11.886;2023-02-20T09:00:10;96612.44;;;9.13;56.11
27425;BME280;15244;49.088;11.886;2023-02-20T09:05:12;96603.03;;;9.26;55.76
27425;BME280;15244;49.088;11.886;2023-02-20T09:10:17;96592.81;;;9.39;55.91
27425;BME280;15244;49.088;11.886;2023-02-20T09:15:19;96577.31;;;9.59;55.67
27425;BME280;15244;49.088;11.886;2023-02-20T09:20:21;96584.72;;;9.58;55.70
27425;BME280;15244;49.088;11.886;2023-02-20T09:25:23;96592.94;;;9.62;55.42
27425;BME280;15244;49.088;11.886;2023-02-20T09:30:25;96584.78;;;9.62;55.24
27425;BME280;15244;49.088;11.886;2023-02-20T09:35:29;96590.22;;;9.62;54.77
27425;BME280;15244;49.088;11.886;2023-02-20T09:40:31;96589.88;;;9.63;54.91
27425;BME280;15244;49.088;11.886;2023-02-20T09:45:35;96597.97;;;9.60;54.81
27425;BME280;15244;49.088;11.886;2023-02-20T09:50:48;96602.34;;;9.64;54.69
27425;BME280;15244;49.088;11.886;2023-02-20T09:55:52;96578.38;;;9.70;54.38
27425;BME280;15244;49.088;11.886;2023-02-20T10:00:59;96573.19;;;9.84;54.42
27425;BME280;15244;49.088;11.886;2023-02-20T10:06:10;96589.06;;;9.98;54.32
27425;BME280;15244;49.088;11.886;2023-02-20T10:11:23;96559.56;;;10.23;54.14
27425;BME280;15244;49.088;11.886;2023-02-20T10:16:40;96566.47;;;10.36;54.07
27425;BME280;15244;49.088;11.886;2023-02-20T10:27:21;96565.44;;;10.68;53.71
27425;BME280;15244;49.088;11.886;2023-02-20T10:32:41;96562.13;;;10.78;53.21
27425;BME280;15244;49.088;11.886;2023-02-20T10:37:47;96548.59;;;10.85;52.90
27425;BME280;15244;49.088;11.886;2023-02-20T10:42:57;96533.44;;;10.88;52.52
27425;BME280;15244;49.088;11.886;2023-02-20T10:48:08;96539.38;;;10.93;52.43
27425;BME280;15244;49.088;11.886;2023-02-20T10:58:21;96507.25;;;11.36;52.18
27425;BME280;15244;49.088;11.886;2023-02-20T11:09:00;96501.78;;;11.66;52.06
27425;BME280;15244;49.088;11.886;2023-02-20T11:14:10;96506.19;;;11.75;51.60
27425;BME280;15244;49.088;11.886;2023-02-20T11:19:20;96514.44;;;11.78;51.05
27425;BME280;15244;49.088;11.886;2023-02-20T11:24:27;96488.34;;;11.84;51.11
27425;BME280;15244;49.088;11.886;2023-02-20T11:29:38;96488.88;;;11.93;50.81
27425;BME280;15244;49.088;11.886;2023-02-20T11:34:41;96487.78;;;11.98;50.87
27425;BME280;15244;49.088;11.886;2023-02-20T11:39:46;96463.63;;;12.07;50.03
27425;BME280;15244;49.088;11.886;2023-02-20T11:50:18;96456.22;;;12.49;49.68
27425;BME280;15244;49.088;11.886;2023-02-20T11:55:22;96467.53;;;12.47;49.15
27425;BME280;15244;49.088;11.886;2023-02-20T12:00:28;96446.06;;;12.49;48.39
27425;BME280;15244;49.088;11.886;2023-02-20T12:05:45;96438.22;;;12.44;48.21
27425;BME280;15244;49.088;11.886;2023-02-20T12:10:48;96442.22;;;12.54;48.33
27425;BME280;15244;49.088;11.886;2023-02-20T12:16:02;96416.41;;;12.55;48.47
27425;BME280;15244;49.088;11.886;2023-02-20T12:21:16;96406.25;;;12.55;48.21
27425;BME280;15244;49.088;11.886;2023-02-20T12:31:55;96393.53;;;12.77;47.89
27425;BME280;15244;49.088;11.886;2023-02-20T12:42:42;96376.88;;;13.11;48.03
27425;BME280;15244;49.088;11.886;2023-02-20T12:48:00;96376.50;;;13.13;47.00
27425;BME280;15244;49.088;11.886;2023-02-20T12:53:23;96368.00;;;13.29;47.09
27425;BME280;15244;49.088;11.886;2023-02-20T12:58:41;96364.94;;;13.52;47.38
27425;BME280;15244;49.088;11.886;2023-02-20T13:09:04;96341.91;;;13.81;46.71
27425;BME280;15244;49.088;11.886;2023-02-20T13:19:20;96306.31;;;13.88;45.49
27425;BME280;15244;49.088;11.886;2023-02-20T13:24:28;96310.63;;;14.00;45.58
27425;BME280;15244;49.088;11.886;2023-02-20T13:29:30;96304.34;;;14.14;44.95
27425;BME280;15244;49.088;11.886;2023-02-20T13:34:35;96309.06;;;14.14;44.40
27425;BME280;15244;49.088;11.886;2023-02-20T13:39:40;96292.59;;;14.17;44.33
27425;BME280;15244;49.088;11.886;2023-02-20T13:44:43;96278.84;;;14.28;44.19
27425;BME280;15244;49.088;11.886;2023-02-20T13:54:46;96287.06;;;14.35;43.53
27425;BME280;15244;49.088;11.886;2023-02-20T13:59:52;96269.44;;;14.54;44.19
27425;BME280;15244;49.088;11.886;2023-02-20T14:05:03;96258.81;;;14.52;43.33
27425;BME280;15244;49.088;11.886;2023-02-20T14:10:14;96281.97;;;14.59;43.11
27425;BME280;15244;49.088;11.886;2023-02-20T14:15:17;96260.00;;;14.66;43.20
27425;BME280;15244;49.088;11.886;2023-02-20T14:20:44;96239.25;;;14.58;42.05
27425;BME280;15244;49.088;11.886;2023-02-20T14:26:04;96258.03;;;14.63;42.05
27425;BME280;15244;49.088;11.886;2023-02-20T14:31:20;96247.03;;;14.70;42.53
27425;BME280;15244;49.088;11.886;2023-02-20T14:36:35;96238.38;;;14.82;42.82
27425;BME280;15244;49.088;11.886;2023-02-20T14:41:50;96244.66;;;14.86;42.69
27425;BME280;15244;49.088;11.886;2023-02-20T14:46:54;96230.53;;;14.84;41.81
27425;BME280;15244;49.088;11.886;2023-02-20T14:57:15;96233.66;;;14.86;41.37
27425;BME280;15244;49.088;11.886;2023-02-20T15:02:26;96231.34;;;14.78;41.12
27425;BME280;15244;49.088;11.886;2023-02-20T15:07:35;96225.78;;;14.92;41.43
27425;BME280;15244;49.088;11.886;2023-02-20T15:12:39;96220.25;;;15.03;41.60
27425;BME280;15244;49.088;11.886;2023-02-20T15:17:42;96237.81;;;15.16;41.63
27425;BME280;15244;49.088;11.886;2023-02-20T15:22:44;96239.38;;;15.21;41.42
27425;BME280;15244;49.088;11.886;2023-02-20T15:28:12;96224.84;;;15.20;41.33
27425;BME280;15244;49.088;11.886;2023-02-20T15:33:23;96218.13;;;15.28;41.17
27425;BME280;15244;49.088;11.886;2023-02-20T15:38:33;96212.66;;;15.25;40.50
27425;BME280;15244;49.088;11.886;2023-02-20T15:43:35;96206.38;;;15.28;40.84
27425;BME280;15244;49.088;11.886;2023-02-20T15:48:48;96221.28;;;15.27;40.20
27425;BME280;15244;49.088;11.886;2023-02-20T15:53:51;96204.81;;;15.23;40.52
27425;BME280;15244;49.088;11.886;2023-02-20T15:58:53;96189.88;;;15.28;40.57
27425;BME280;15244;49.088;11.886;2023-02-20T16:03:55;96180.84;;;15.31;40.65
27425;BME280;15244;49.088;11.886;2023-02-20T16:08:56;96186.75;;;15.29;40.54
27425;BME280;15244;49.088;11.886;2023-02-20T16:14:00;96167.53;;;15.26;40.68
27425;BME280;15244;49.088;11.886;2023-02-20T16:19:05;96166.78;;;15.18;40.32
27425;BME280;15244;49.088;11.886;2023-02-20T16:24:11;96157.06;;;15.06;39.58
27425;BME280;15244;49.088;11.886;2023-02-20T16:29:21;96155.97;;;14.97;40.26
27425;BME280;15244;49.088;11.886;2023-02-20T16:34:29;96148.56;;;14.86;40.58
27425;BME280;15244;49.088;11.886;2023-02-20T16:39:32;96157.63;;;14.76;40.13
27425;BME280;15244;49.088;11.886;2023-02-20T16:44:36;96149.47;;;14.58;40.37
27425;BME280;15244;49.088;11.886;2023-02-20T16:49:40;96146.38;;;14.49;40.52
27425;BME280;15244;49.088;11.886;2023-02-20T16:54:47;96140.13;;;14.38;40.53
27425;BME280;15244;49.088;11.886;2023-02-20T16:59:54;96146.84;;;14.22;40.44
27425;BME280;15244;49.088;11.886;2023-02-20T17:04:59;96144.94;;;14.16;40.61
27425;BME280;15244;49.088;11.886;2023-02-20T17:10:01;96141.41;;;14.04;40.50
27425;BME280;15244;49.088;11.886;2023-02-20T17:15:04;96147.31;;;13.96;40.51
27425;BME280;15244;49.088;11.886;2023-02-20T17:20:20;96145.78;;;13.77;40.55
27425;BME280;15244;49.088;11.886;2023-02-20T17:25:24;96144.22;;;13.61;40.62
27425;BME280;15244;49.088;11.886;2023-02-20T17:30:26;96141.91;;;13.53;40.82
27425;BME280;15244;49.088;11.886;2023-02-20T17:35:27;96166.56;;;13.53;40.87
27425;BME280;15244;49.088;11.886;2023-02-20T17:40:30;96149.75;;;13.47;40.60
27425;BME280;15244;49.088;11.886;2023-02-20T17:45:31;96151.28;;;13.48;40.78
27425;BME280;15244;49.088;11.886;2023-02-20T17:50:33;96164.97;;;13.41;40.72
27425;BME280;15244;49.088;11.886;2023-02-20T17:55:35;96168.53;;;13.34;40.64
27425;BME280;15244;49.088;11.886;2023-02-20T18:00:36;96161.84;;;13.28;40.80
27425;BME280;15244;49.088;11.886;2023-02-20T18:05:38;96165.34;;;13.25;40.80
27425;BME280;15244;49.088;11.886;2023-02-20T18:10:40;96174.34;;;13.22;40.56
27425;BME280;15244;49.088;11.886;2023-02-20T18:15:41;96166.50;;;13.20;40.63
27425;BME280;15244;49.088;11.886;2023-02-20T18:20:43;96164.53;;;13.21;40.43
27425;BME280;15244;49.088;11.886;2023-02-20T18:25:45;96160.22;;;13.16;40.56
27425;BME280;15244;49.088;11.886;2023-02-20T18:30:47;96162.97;;;13.13;40.57
27425;BME280;15244;49.088;11.886;2023-02-20T18:35:48;96158.28;;;13.10;40.73
27425;BME280;15244;49.088;11.886;2023-02-20T18:41:09;96162.56;;;13.04;40.66
27425;BME280;15244;49.088;11.886;2023-02-20T18:46:13;96162.94;;;12.98;40.65
27425;BME280;15244;49.088;11.886;2023-02-20T18:51:29;96159.81;;;12.93;40.65
27425;BME280;15244;49.088;11.886;2023-02-20T18:56:31;96157.47;;;12.84;40.62
27425;BME280;15244;49.088;11.886;2023-02-20T19:01:39;96143.34;;;12.78;40.69
27425;BME280;15244;49.088;11.886;2023-02-20T19:06:41;96156.22;;;12.67;40.98
27425;BME280;15244;49.088;11.886;2023-02-20T19:11:48;96146.84;;;12.65;40.63
27425;BME280;15244;49.088;11.886;2023-02-20T19:16:52;96140.19;;;12.66;40.50
27425;BME280;15244;49.088;11.886;2023-02-20T19:21:55;96139.81;;;12.67;40.80
27425;BME280;15244;49.088;11.886;2023-02-20T19:26:57;96146.84;;;12.65;40.82
27425;BME280;15244;49.088;11.886;2023-02-20T19:31:59;96140.59;;;12.64;40.61
27425;BME280;15244;49.088;11.886;2023-02-20T19:37:02;96132.78;;;12.63;40.72
27425;BME280;15244;49.088;11.886;2023-02-20T19:42:05;96146.03;;;12.61;40.74
27425;BME280;15244;49.088;11.886;2023-02-20T19:47:10;96144.50;;;12.60;41.16
27425;BME280;15244;49.088;11.886;2023-02-20T19:52:16;96147.97;;;12.53;40.84
27425;BME280;15244;49.088;11.886;2023-02-20T19:57:17;96146.78;;;12.47;40.77
27425;BME280;15244;49.088;11.886;2023-02-20T20:02:19;96138.19;;;12.41;41.16
27425;BME280;15244;49.088;11.886;2023-02-20T20:07:25;96153.00;;;12.36;41.07
27425;BME280;15244;49.088;11.886;2023-02-20T20:12:29;96160.00;;;12.30;41.22
27425;BME280;15244;49.088;11.886;2023-02-20T20:17:51;96160.00;;;12.27;41.19
27425;BME280;15244;49.088;11.886;2023-02-20T20:22:56;96159.59;;;12.25;40.89
27425;BME280;15244;49.088;11.886;2023-02-20T20:27:58;96159.59;;;12.21;40.76
27425;BME280;15244;49.088;11.886;2023-02-20T20:33:03;96161.91;;;12.19;40.56
27425;BME280;15244;49.088;11.886;2023-02-20T20:38:05;96161.09;;;12.15;40.46
27425;BME280;15244;49.088;11.886;2023-02-20T20:43:08;96166.09;;;12.02;40.34
27425;BME280;15244;49.088;11.886;2023-02-20T20:48:11;96159.09;;;12.01;40.26
27425;BME280;15244;49.088;11.886;2023-02-20T20:53:12;96160.63;;;12.02;40.21
27425;BME280;15244;49.088;11.886;2023-02-20T20:58:14;96158.69;;;11.99;40.61
27425;BME280;15244;49.088;11.886;2023-02-20T21:03:18;96154.38;;;11.98;40.10
27425;BME280;15244;49.088;11.886;2023-02-20T21:08:20;96152.44;;;11.99;40.01
27425;BME280;15244;49.088;11.886;2023-02-20T21:13:21;96159.84;;;11.98;40.25
27425;BME280;15244;49.088;11.886;2023-02-20T21:18:23;96155.53;;;11.97;39.94
27425;BME280;15244;49.088;11.886;2023-02-20T21:23:25;96147.31;;;11.93;39.83
27425;BME280;15244;49.088;11.886;2023-02-20T21:28:27;96141.81;;;11.90;40.01
27425;BME280;15244;49.088;11.886;2023-02-20T21:33:29;96142.59;;;11.87;40.00
27425;BME280;15244;49.088;11.886;2023-02-20T21:38:31;96140.59;;;11.84;39.81
27425;BME280;15244;49.088;11.886;2023-02-20T21:43:35;96132.00;;;11.82;40.19
27425;BME280;15244;49.088;11.886;2023-02-20T21:48:55;96136.69;;;11.78;39.84
27425;BME280;15244;49.088;11.886;2023-02-20T21:53:57;96138.22;;;11.75;40.11
27425;BME280;15244;49.088;11.886;2023-02-20T21:58:58;96133.50;;;11.72;40.22
27425;BME280;15244;49.088;11.886;2023-02-20T22:04:09;96131.53;;;11.65;40.11
27425;BME280;15244;49.088;11.886;2023-02-20T22:09:13;96135.03;;;11.62;40.38
27425;BME280;15244;49.088;11.886;2023-02-20T22:14:34;96128.38;;;11.60;40.65
27425;BME280;15244;49.088;11.886;2023-02-20T22:19:55;96133.03;;;11.59;40.87
27425;BME280;15244;49.088;11.886;2023-02-20T22:25:16;96134.56;;;11.57;40.91
27425;BME280;15244;49.088;11.886;2023-02-20T22:30:37;96124.41;;;11.54;41.12
27425;BME280;15244;49.088;11.886;2023-02-20T22:35:58;96131.81;;;11.49;41.10
27425;BME280;15244;49.088;11.886;2023-02-20T22:41:19;96130.59;;;11.43;41.30
27425;BME280;15244;49.088;11.886;2023-02-20T22:46:39;96134.84;;;11.37;41.13
27425;BME280;15244;49.088;11.886;2023-02-20T22:51:59;96132.41;;;11.28;41.63
27425;BME280;15244;49.088;11.886;2023-02-20T22:57:20;96134.38;;;11.28;41.52
27425;BME280;15244;49.088;11.886;2023-02-20T23:02:40;96132.75;;;11.20;42.21
27425;BME280;15244;49.088;11.886;2023-02-20T23:08:00;96135.44;;;11.16;42.31
27425;BME280;15244;49.088;11.886;2023-02-20T23:13:20;96136.97;;;11.14;42.45
27425;BME280;15244;49.088;11.886;2023-02-20T23:18:41;96133.47;;;11.13;42.53
27425;BME280;15244;49.088;11.886;2023-02-20T23:24:01;96136.16;;;11.10;42.65
27425;BME280;15244;49.088;11.886;2023-02-20T23:29:21;96130.28;;;11.04;42.61
27425;BME280;15244;49.088;11.886;2023-02-20T23:34:42;96129.44;;;10.96;42.69
27425;BME280;15244;49.088;11.886;2023-02-20T23:40:03;96130.16;;;10.93;43.28
27425;BME280;15244;49.088;11.886;2023-02-20T23:45:36;96138.66;;;10.84;43.10
27425;BME280;15244;49.088;11.886;2023-02-20T23:50:57;96135.53;;;10.82;43.30
27425;BME280;15244;49.088;11.886;2023-02-20T23:56:17;96137.47;;;10.82;43.67
